createdAt,value
2022-08-22T00:02:56.461Z,12.20
2022-08-22T00:07:54.401Z,13.00
2022-08-22T00:18:09.910Z,13.10
2022-08-22T00:28:20.565Z,14.30
2022-08-22T00:38:35.172Z,15.40
2022-08-22T00:49:02.376Z,17.80
2022-08-22T00:59:23.190Z,19.60
2022-08-22T01:09:44.209Z,19.10
2022-08-22T01:20:44.861Z,18.80
2022-08-22T01:31:20.604Z,19.40
2022-08-22T01:41:54.656Z,17.60
2022-08-22T01:52:05.894Z,16.70
2022-08-22T02:02:25.713Z,17.60
2022-08-22T02:12:43.407Z,16.00
2022-08-22T02:22:59.870Z,17.60
2022-08-22T02:33:13.380Z,18.40
2022-08-22T02:43:23.871Z,18.20
2022-08-22T02:53:40.499Z,18.00
2022-08-22T03:03:49.286Z,18.10
2022-08-22T03:14:05.959Z,17.40
2022-08-22T03:24:17.462Z,18.60
2022-08-22T03:34:27.367Z,17.60
2022-08-22T03:45:07.063Z,17.90
2022-08-22T03:55:28.643Z,15.80
2022-08-22T04:05:58.336Z,14.10
2022-08-22T04:16:48.588Z,12.20
2022-08-22T04:27:01.134Z,11.30
2022-08-22T04:37:14.718Z,11.30
2022-08-22T04:47:31.785Z,10.90
2022-08-22T04:57:50.901Z,8.60
2022-08-22T05:07:59.614Z,8.30
2022-08-22T05:18:10.015Z,8.20
2022-08-22T05:28:24.504Z,7.40
2022-08-22T05:38:35.625Z,8.40
2022-08-22T05:48:46.869Z,8.10
2022-08-22T05:59:00.150Z,9.30
2022-08-22T06:09:13.925Z,8.70
2022-08-22T06:19:21.687Z,10.00
2022-08-22T06:29:36.519Z,8.80
2022-08-22T06:39:46.407Z,9.40
2022-08-22T06:49:57.229Z,7.30
2022-08-22T07:00:09.874Z,6.90
2022-08-22T07:10:16.522Z,7.20
2022-08-22T07:20:32.057Z,6.70
2022-08-22T07:30:46.865Z,5.20
2022-08-22T07:41:03.623Z,7.30
2022-08-22T07:51:14.030Z,4.30
2022-08-22T08:01:23.408Z,8.00
2022-08-22T08:11:33.321Z,8.50
2022-08-22T08:21:43.455Z,5.30
2022-08-22T08:31:49.330Z,7.80
2022-08-22T08:42:15.324Z,6.50
2022-08-22T08:52:42.121Z,5.80
2022-08-22T09:03:06.371Z,6.10
2022-08-22T09:13:40.891Z,5.30
2022-08-22T09:24:12.381Z,7.90
2022-08-22T09:34:30.386Z,6.90
2022-08-22T09:44:45.088Z,6.20
2022-08-22T09:54:56.057Z,5.60
2022-08-22T10:05:13.377Z,6.00
2022-08-22T10:15:44.743Z,6.80
2022-08-22T10:25:54.433Z,6.20
2022-08-22T10:36:07.937Z,6.10
2022-08-22T10:46:23.445Z,6.60
2022-08-22T10:56:40.625Z,6.80
2022-08-22T11:06:58.045Z,7.30
2022-08-22T11:17:28.023Z,6.20
2022-08-22T11:27:45.972Z,6.40
2022-08-22T11:38:00.644Z,6.30
2022-08-22T11:48:20.055Z,7.00
2022-08-22T11:58:42.690Z,6.30
2022-08-22T12:09:25.457Z,7.10
2022-08-22T12:20:05.739Z,6.90
2022-08-22T12:30:16.507Z,9.30
2022-08-22T12:40:36.771Z,7.00
2022-08-22T12:50:50.313Z,9.80
2022-08-22T13:01:03.671Z,9.60
2022-08-22T13:11:23.398Z,6.90
2022-08-22T13:21:36.057Z,10.50
2022-08-22T13:31:44.808Z,7.60
2022-08-22T13:41:58.334Z,5.30
2022-08-22T13:52:30.227Z,8.40
2022-08-22T14:02:55.534Z,6.30
2022-08-22T14:13:30.594Z,5.30
2022-08-22T14:23:37.959Z,8.40
2022-08-22T14:33:51.125Z,11.10
2022-08-22T14:44:01.680Z,7.60
2022-08-22T14:54:21.428Z,9.70
2022-08-22T15:04:34.768Z,11.40
2022-08-22T15:14:52.013Z,8.10
2022-08-22T15:25:03.495Z,9.00
2022-08-22T15:35:13.891Z,7.00
2022-08-22T15:45:33.701Z,7.60
2022-08-22T15:56:04.756Z,10.10
2022-08-22T16:06:12.911Z,8.50
2022-08-22T16:26:42.999Z,9.70
2022-08-22T16:36:52.012Z,7.20
2022-08-22T16:47:11.504Z,8.80
2022-08-22T16:57:24.628Z,8.30
2022-08-22T17:07:43.183Z,6.90
2022-08-22T17:18:11.794Z,9.80
2022-08-22T17:28:29.212Z,7.20
2022-08-22T17:38:53.518Z,6.30
2022-08-22T17:49:04.359Z,6.60
2022-08-22T17:59:21.100Z,9.60
2022-08-22T18:09:35.036Z,6.80
2022-08-22T18:19:47.873Z,7.70
2022-08-22T18:29:59.018Z,9.60
2022-08-22T18:40:08.262Z,7.50
2022-08-22T18:50:31.915Z,8.60
2022-08-22T19:00:57.395Z,9.80
2022-08-22T19:11:20.307Z,9.40
2022-08-22T19:21:47.631Z,9.80
2022-08-22T19:31:56.261Z,9.20
2022-08-22T19:42:02.887Z,9.90
2022-08-22T19:52:25.022Z,10.10
2022-08-22T20:02:40.246Z,13.20
2022-08-22T20:12:59.924Z,8.70
2022-08-22T20:23:15.427Z,11.70
2022-08-22T20:33:27.025Z,8.50
2022-08-22T20:43:38.318Z,9.80
2022-08-22T20:53:51.615Z,8.80
2022-08-22T21:03:58.328Z,8.00
2022-08-22T21:14:20.642Z,14.30
2022-08-22T21:24:26.422Z,10.30
2022-08-22T21:34:36.581Z,12.20
2022-08-22T21:44:43.868Z,8.50
2022-08-22T21:54:49.667Z,8.90
2022-08-22T22:04:56.026Z,8.60
2022-08-22T22:15:02.137Z,8.30
2022-08-22T22:25:40.210Z,11.60
2022-08-22T22:35:35.400Z,9.40
2022-08-22T22:45:42.233Z,9.80
2022-08-22T22:56:00.052Z,8.20
2022-08-22T23:06:11.264Z,11.50
2022-08-22T23:16:20.255Z,7.00
2022-08-22T23:26:26.898Z,10.80
2022-08-22T23:36:32.902Z,7.90
2022-08-22T23:46:38.655Z,9.10
2022-08-22T23:56:46.654Z,8.30
